Moreno Valley, California
Current Conditions -  °F | °C
As of 2:58 PM on Saturday 22 Nov 2014 (Local Time) from KRIV Reporting Station
Clear Clear  
Wind Chill: 69°   Ceiling: Unl
Heat Index: 69°   Visibility: 10mi
Dew Point: 43°   Wind: 8mph
Humidity: 39%   Direction: 300°WNW
Pressure: 30.03"   Gusts: NA
Location:  33.92°N, 117.26°W
Report Text: KRIV 222258Z AUTO 30007KT 10SM CLR 21/06 A3003 RMK AO2 SLP166 T02050059
Loading
Personal Weather Stations






























Interactive Weather Map New forecast layout! Learn more

10-Day Weather Forecast

Advertisements
Track Severe Weather on mobile